Time;durP1;ratioP1;P1;durP2;ratioP2;P2;SDS_P1;SDS_P2;PMS_P1;PMS_P2;Temp;Humidity;BMP_temperature;BMP_pressure;BME280_temperature;BME280_humidity;BME280_pressure;Samples;Min_cycle;Max_cycle;Signal;HPM_P1;HPM_P2
2022/05/04 00:00:24;;;;;;;13.70;5.00;;;6.00;99.90;;;;;;4985847;28;20226;-84
2022/05/04 00:02:52;;;;;;;6.63;4.30;;;6.00;99.90;;;;;;4985477;28;20219;-84
2022/05/04 00:05:20;;;;;;;13.45;4.57;;;6.00;99.90;;;;;;4985253;28;20203;-83
2022/05/04 00:07:48;;;;;;;10.07;4.40;;;6.00;99.90;;;;;;4984472;28;20204;-82
2022/05/04 00:10:16;;;;;;;7.15;4.60;;;5.90;99.90;;;;;;4994584;28;20262;-83
2022/05/04 00:12:44;;;;;;;14.05;4.38;;;5.90;99.90;;;;;;4986760;28;20282;-83
2022/05/04 00:15:12;;;;;;;11.75;4.70;;;5.80;99.90;;;;;;4985941;28;20307;-82
2022/05/04 00:17:41;;;;;;;8.45;4.85;;;5.80;99.90;;;;;;4986075;28;20255;-83
2022/05/04 00:20:10;;;;;;;20.20;7.15;;;5.70;99.90;;;;;;4986260;28;20249;-81
2022/05/04 00:22:38;;;;;;;8.63;4.22;;;5.70;99.90;;;;;;4986908;28;20642;-84
2022/05/04 00:25:07;;;;;;;10.30;4.75;;;5.70;99.90;;;;;;4986959;28;20295;-83
2022/05/04 00:27:36;;;;;;;13.23;5.05;;;5.70;99.90;;;;;;4985877;28;20214;-82
2022/05/04 00:30:06;;;;;;;9.00;4.70;;;5.70;99.90;;;;;;4987006;28;20224;-83
2022/05/04 00:32:34;;;;;;;11.23;5.68;;;5.70;99.90;;;;;;4989637;28;20231;-84
2022/05/04 00:35:03;;;;;;;15.52;5.57;;;5.60;99.90;;;;;;4992808;28;20818;-84
2022/05/04 00:37:33;;;;;;;16.13;5.20;;;5.50;99.90;;;;;;5007274;28;20242;-83
2022/05/04 00:40:01;;;;;;;10.52;5.57;;;5.50;99.90;;;;;;4986820;28;20237;-83
2022/05/04 00:42:31;;;;;;;11.13;5.90;;;5.50;99.90;;;;;;4986005;28;20540;-83
2022/05/04 00:44:59;;;;;;;7.47;4.88;;;5.40;99.90;;;;;;4986877;28;20211;-82
2022/05/04 00:47:27;;;;;;;7.55;5.97;;;5.40;99.90;;;;;;4986103;28;20309;-82
2022/05/04 00:49:57;;;;;;;15.85;4.78;;;5.40;99.90;;;;;;4986530;28;20310;-83
2022/05/04 00:52:26;;;;;;;13.32;5.22;;;5.40;99.90;;;;;;4985405;28;20275;-82
2022/05/04 00:54:54;;;;;;;14.52;5.85;;;5.40;99.90;;;;;;4985377;28;20214;-82
2022/05/04 00:58:54;;;;;;;16.67;5.43;;;5.30;99.90;;;;;;4984653;28;20247;-84
2022/05/04 01:00:11;;;;;;;11.32;5.15;;;5.30;99.90;;;;;;4985411;28;20255;-82
2022/05/04 01:02:42;;;;;;;8.95;5.07;;;5.30;99.90;;;;;;4986042;28;20188;-80
2022/05/04 01:05:11;;;;;;;16.23;5.45;;;5.30;99.90;;;;;;5001618;28;20297;-84
2022/05/04 01:07:43;;;;;;;10.00;5.35;;;5.20;99.90;;;;;;5004072;28;20276;-85
2022/05/04 01:10:13;;;;;;;12.43;5.22;;;5.30;99.90;;;;;;5004200;28;20258;-83
2022/05/04 01:12:47;;;;;;;11.35;5.63;;;5.30;99.90;;;;;;5007711;28;20210;-84
2022/05/04 01:15:15;;;;;;;13.93;6.95;;;5.30;99.90;;;;;;5007457;28;20199;-82
2022/05/04 01:17:43;;;;;;;9.40;5.80;;;5.20;99.90;;;;;;4997829;28;20894;-83
2022/05/04 01:20:12;;;;;;;15.93;5.57;;;5.20;99.90;;;;;;4993382;28;20286;-84
2022/05/04 01:22:41;;;;;;;11.23;5.65;;;5.20;99.90;;;;;;4993652;28;20200;-83
2022/05/04 01:25:11;;;;;;;10.88;6.45;;;5.20;99.90;;;;;;4991966;28;20683;-83
2022/05/04 01:27:39;;;;;;;10.45;6.40;;;5.10;99.90;;;;;;4994726;28;20678;-82
2022/05/04 01:30:08;;;;;;;12.30;6.57;;;5.10;99.90;;;;;;4995543;28;20270;-83
2022/05/04 01:32:36;;;;;;;8.65;5.55;;;5.10;99.90;;;;;;4991598;28;20302;-83
2022/05/04 01:35:05;;;;;;;13.48;5.75;;;5.10;99.90;;;;;;4990500;28;20235;-84
2022/05/04 01:37:33;;;;;;;9.52;6.22;;;5.10;99.90;;;;;;4990622;28;20495;-82
2022/05/04 01:40:02;;;;;;;9.10;6.10;;;5.10;99.90;;;;;;5006457;28;20204;-83
2022/05/04 01:42:30;;;;;;;14.80;7.10;;;5.00;99.90;;;;;;5003081;28;20241;-82
2022/05/04 01:45:00;;;;;;;15.65;6.20;;;5.00;99.90;;;;;;4993349;28;20799;-83
2022/05/04 01:47:28;;;;;;;14.10;7.80;;;5.00;99.90;;;;;;4991415;28;20200;-83
2022/05/04 01:49:56;;;;;;;11.07;6.20;;;5.00;99.90;;;;;;4991484;28;20303;-84
2022/05/04 01:52:25;;;;;;;10.68;6.13;;;5.00;99.90;;;;;;4989176;28;20238;-83
2022/05/04 01:54:53;;;;;;;9.65;6.20;;;5.00;99.90;;;;;;4988633;28;20267;-84
2022/05/04 01:57:22;;;;;;;9.65;6.38;;;5.00;99.90;;;;;;4987527;28;20219;-83
2022/05/04 01:59:50;;;;;;;12.15;6.68;;;4.90;99.90;;;;;;4987542;28;20310;-82
2022/05/04 02:02:19;;;;;;;13.48;6.07;;;4.90;99.90;;;;;;4987519;28;20207;-82
2022/05/04 02:04:49;;;;;;;15.50;7.03;;;4.90;99.90;;;;;;4986833;28;20815;-82
2022/05/04 02:07:17;;;;;;;16.98;6.28;;;4.90;99.90;;;;;;4986299;28;20199;-83
2022/05/04 02:09:46;;;;;;;13.35;7.15;;;4.90;99.90;;;;;;4986784;28;20239;-82
2022/05/04 02:12:15;;;;;;;14.02;6.95;;;4.90;99.90;;;;;;4985509;28;20262;-83
2022/05/04 02:14:44;;;;;;;17.85;7.07;;;4.80;99.90;;;;;;4986311;28;20240;-83
2022/05/04 02:17:12;;;;;;;8.50;5.85;;;4.80;99.90;;;;;;4986073;28;20278;-83
2022/05/04 02:19:40;;;;;;;16.80;6.47;;;4.80;99.90;;;;;;4985363;28;20314;-83
2022/05/04 02:22:08;;;;;;;14.02;7.50;;;4.80;99.90;;;;;;4987145;28;20238;-84
2022/05/04 02:24:36;;;;;;;13.80;6.85;;;4.80;99.90;;;;;;4988094;28;20200;-83
2022/05/04 02:27:04;;;;;;;14.82;6.50;;;4.70;99.90;;;;;;4988357;28;20207;-82
2022/05/04 02:29:32;;;;;;;12.63;7.00;;;4.70;99.90;;;;;;4987489;28;20243;-80
2022/05/04 02:32:02;;;;;;;12.40;7.10;;;4.70;99.90;;;;;;4987275;28;20233;-83
2022/05/04 02:34:30;;;;;;;14.23;7.00;;;4.70;99.90;;;;;;4987393;28;20415;-84
2022/05/04 02:39:43;;;;;;;11.27;6.90;;;4.60;99.90;;;;;;4987786;28;20251;-83
2022/05/04 02:42:11;;;;;;;11.70;7.15;;;4.60;99.90;;;;;;4989700;28;20245;-84
2022/05/04 02:44:46;;;;;;;15.95;6.45;;;4.60;99.90;;;;;;5012009;28;20187;-83
2022/05/04 02:47:15;;;;;;;19.80;6.75;;;4.60;99.90;;;;;;4988672;28;20244;-83
2022/05/04 02:49:43;;;;;;;12.43;7.90;;;4.60;99.90;;;;;;4988241;28;20219;-83
2022/05/04 02:52:11;;;;;;;11.55;6.22;;;4.60;99.90;;;;;;4986586;28;20211;-81
2022/05/04 02:54:39;;;;;;;12.50;6.45;;;4.60;99.90;;;;;;4986479;28;20211;-82
2022/05/04 02:57:08;;;;;;;16.40;6.80;;;4.50;99.90;;;;;;4984593;28;20212;-83
2022/05/04 02:59:36;;;;;;;14.20;6.38;;;4.50;99.90;;;;;;4985703;28;20225;-84
2022/05/04 03:04:51;;;;;;;12.23;6.90;;;4.50;99.90;;;;;;4986742;28;21100;-83
2022/05/04 03:07:19;;;;;;;9.05;5.97;;;4.50;99.90;;;;;;4986598;28;20299;-83
2022/05/04 03:09:46;;;;;;;13.95;6.75;;;4.60;99.90;;;;;;4985984;28;20329;-84
2022/05/04 03:12:15;;;;;;;12.38;7.35;;;4.60;99.90;;;;;;4986066;28;20663;-83
2022/05/04 03:14:44;;;;;;;17.25;7.38;;;4.70;99.90;;;;;;4986267;28;20656;-83
2022/05/04 03:17:12;;;;;;;14.32;7.78;;;4.80;99.90;;;;;;4986053;28;20224;-83
2022/05/04 03:19:41;;;;;;;17.58;5.90;;;4.90;99.90;;;;;;4985423;28;20310;-83
2022/05/04 03:22:10;;;;;;;19.08;7.97;;;5.00;99.90;;;;;;4986634;28;20191;-84
2022/05/04 03:24:39;;;;;;;16.73;7.80;;;5.10;99.90;;;;;;4985936;28;20781;-83
2022/05/04 03:27:08;;;;;;;16.63;8.38;;;5.20;99.90;;;;;;4986083;28;20385;-82
2022/05/04 03:29:36;;;;;;;10.95;7.00;;;5.20;99.90;;;;;;4985606;28;20737;-83
2022/05/04 03:32:05;;;;;;;18.15;8.13;;;5.30;99.90;;;;;;4986006;28;20698;-82
2022/05/04 03:34:33;;;;;;;18.73;6.97;;;5.30;99.90;;;;;;4984983;28;20204;-83
2022/05/04 03:37:01;;;;;;;11.77;6.70;;;5.40;99.90;;;;;;4986937;28;20212;-82
2022/05/04 03:39:31;;;;;;;16.25;6.97;;;5.40;99.90;;;;;;4987365;28;20302;-81
2022/05/04 03:41:59;;;;;;;12.65;6.55;;;5.50;99.90;;;;;;4987435;28;20585;-83
2022/05/04 03:44:27;;;;;;;13.02;6.63;;;5.50;99.90;;;;;;4987901;28;20271;-84
2022/05/04 03:46:55;;;;;;;14.13;6.47;;;5.60;99.90;;;;;;5000862;28;20256;-81
2022/05/04 03:49:24;;;;;;;16.85;7.30;;;5.60;99.90;;;;;;5004033;28;20187;-81
2022/05/04 03:51:53;;;;;;;15.38;7.63;;;5.70;99.90;;;;;;4987269;28;20223;-82
2022/05/04 03:54:21;;;;;;;14.80;6.40;;;5.70;99.90;;;;;;4989057;28;20217;-82
2022/05/04 03:56:50;;;;;;;10.77;5.93;;;5.80;99.90;;;;;;4994862;28;20246;-82
2022/05/04 03:59:18;;;;;;;11.68;6.15;;;5.90;99.90;;;;;;5002678;28;20874;-83
2022/05/04 04:01:46;;;;;;;13.15;7.30;;;6.00;99.90;;;;;;4999168;28;20260;-83
2022/05/04 04:04:14;;;;;;;11.23;6.38;;;6.10;99.90;;;;;;4993901;28;20206;-84
2022/05/04 04:06:42;;;;;;;14.40;6.88;;;6.20;99.90;;;;;;4984691;28;20212;-83
2022/05/04 04:09:10;;;;;;;9.98;6.15;;;6.30;99.90;;;;;;4985686;28;20195;-83
2022/05/04 04:11:41;;;;;;;11.35;6.40;;;6.40;99.90;;;;;;4985702;28;20203;-83
2022/05/04 04:14:10;;;;;;;10.00;5.78;;;6.60;99.90;;;;;;4984657;28;20212;-84
2022/05/04 04:16:38;;;;;;;7.18;5.68;;;6.70;99.90;;;;;;4984954;28;20836;-84
2022/05/04 04:19:06;;;;;;;9.88;5.93;;;6.70;99.90;;;;;;4984095;28;20688;-83
2022/05/04 04:21:52;;;;;;;14.35;6.35;;;6.70;99.90;;;;;;4985498;28;20428;-81
2022/05/04 04:24:21;;;;;;;8.55;5.90;;;6.80;99.90;;;;;;4985475;28;20203;-83
2022/05/04 04:26:49;;;;;;;6.57;5.65;;;6.80;99.90;;;;;;4985159;28;20434;-83
2022/05/04 04:29:18;;;;;;;13.55;5.10;;;6.80;99.90;;;;;;4984536;28;20266;-84
2022/05/04 04:31:46;;;;;;;6.88;5.38;;;6.90;99.90;;;;;;4985149;28;20275;-82
2022/05/04 04:34:14;;;;;;;9.27;5.57;;;6.90;99.90;;;;;;4987285;28;20215;-82
2022/05/04 04:36:44;;;;;;;9.55;6.72;;;7.00;99.90;;;;;;4985679;28;20223;-81
2022/05/04 04:39:12;;;;;;;7.32;6.10;;;7.00;99.90;;;;;;4983601;28;20216;-82
2022/05/04 04:41:40;;;;;;;11.13;6.45;;;7.00;99.90;;;;;;4993643;28;20199;-83
2022/05/04 04:44:08;;;;;;;12.55;5.55;;;6.90;99.90;;;;;;5008190;28;20216;-82
2022/05/04 04:46:38;;;;;;;9.85;5.57;;;6.90;99.90;;;;;;4991633;28;20222;-83
2022/05/04 04:49:06;;;;;;;12.48;6.10;;;6.90;99.90;;;;;;4997644;28;20676;-85
2022/05/04 04:51:34;;;;;;;6.28;5.65;;;6.90;99.90;;;;;;5011426;28;20206;-84
2022/05/04 04:54:04;;;;;;;11.40;5.70;;;6.90;99.90;;;;;;4998186;28;20631;-85
2022/05/04 04:56:32;;;;;;;10.15;6.43;;;6.90;99.90;;;;;;4996148;28;20223;-86
2022/05/04 04:59:00;;;;;;;12.57;6.20;;;6.90;99.90;;;;;;4996004;28;20448;-86
2022/05/04 05:01:28;;;;;;;10.55;5.15;;;7.00;99.90;;;;;;4997436;28;20227;-84
2022/05/04 05:04:00;;;;;;;11.10;6.05;;;7.00;99.90;;;;;;4998590;28;20291;-87
2022/05/04 05:06:30;;;;;;;5.80;5.20;;;7.10;99.90;;;;;;4995412;28;20238;-85
2022/05/04 05:09:00;;;;;;;11.07;6.32;;;7.20;99.90;;;;;;4994729;28;20196;-85
2022/05/04 05:11:28;;;;;;;11.02;6.72;;;7.20;99.90;;;;;;4994255;28;20291;-85
2022/05/04 05:16:42;;;;;;;12.50;7.00;;;7.40;99.90;;;;;;4993206;28;20243;-84
2022/05/04 05:19:11;;;;;;;5.50;5.00;;;7.50;99.90;;;;;;5001802;28;20484;-84
2022/05/04 05:21:39;;;;;;;13.35;4.45;;;7.70;99.90;;;;;;5007071;28;20204;-87
2022/05/04 05:24:08;;;;;;;12.85;5.15;;;7.80;99.90;;;;;;4994738;28;20207;-87
2022/05/04 05:26:36;;;;;;;12.80;5.50;;;7.90;99.90;;;;;;4995821;28;20262;-85
2022/05/04 05:29:04;;;;;;;14.52;7.00;;;8.10;99.90;;;;;;4995979;28;20199;-87
2022/05/04 05:31:37;;;;;;;11.65;5.63;;;8.30;99.90;;;;;;4996884;28;20206;-85
2022/05/04 05:34:07;;;;;;;10.18;5.60;;;8.40;99.90;;;;;;5000675;28;20211;-83
2022/05/04 05:36:36;;;;;;;16.20;5.25;;;8.40;99.90;;;;;;5020958;28;20310;-87
2022/05/04 05:39:04;;;;;;;7.50;4.93;;;8.40;99.90;;;;;;5017688;28;20222;-88
2022/05/04 05:41:33;;;;;;;13.73;5.25;;;8.50;99.90;;;;;;5017252;28;20211;-87
2022/05/04 05:44:01;;;;;;;13.75;4.75;;;8.50;99.90;;;;;;5007717;28;20226;-85
2022/05/04 05:46:29;;;;;;;11.27;5.50;;;8.50;99.90;;;;;;5006248;28;20207;-86
2022/05/04 05:48:57;;;;;;;6.80;4.15;;;8.60;99.90;;;;;;5014919;28;20830;-87
2022/05/04 05:51:25;;;;;;;12.75;4.57;;;8.60;99.90;;;;;;5016719;28;20241;-86
2022/05/04 05:53:54;;;;;;;7.03;4.10;;;8.60;99.90;;;;;;5002000;28;20263;-86
2022/05/04 05:56:22;;;;;;;10.50;4.10;;;8.60;99.90;;;;;;5011080;28;20196;-88
2022/05/04 05:58:50;;;;;;;11.38;3.95;;;8.60;99.90;;;;;;4999884;28;20418;-86
2022/05/04 06:01:19;;;;;;;5.63;2.80;;;8.70;99.90;;;;;;4997891;28;20230;-86
2022/05/04 06:03:49;;;;;;;3.55;2.30;;;8.70;99.90;;;;;;4998008;28;20222;-86
2022/05/04 06:06:19;;;;;;;6.72;2.97;;;8.80;99.90;;;;;;4996264;28;20210;-88
2022/05/04 06:08:47;;;;;;;7.85;2.85;;;8.80;99.90;;;;;;4996831;28;20680;-87
2022/05/04 06:11:16;;;;;;;2.92;1.80;;;8.90;99.90;;;;;;4998213;28;20239;-86
2022/05/04 06:13:52;;;;;;;9.88;2.40;;;8.90;99.90;;;;;;5000365;28;20246;-87
2022/05/04 06:16:20;;;;;;;10.45;2.33;;;8.90;99.90;;;;;;4998497;28;20834;-88
2022/05/04 06:18:48;;;;;;;5.97;1.83;;;8.90;99.90;;;;;;4995795;28;20219;-87
2022/05/04 06:21:16;;;;;;;2.72;1.83;;;8.90;99.90;;;;;;4996220;28;20254;-86
2022/05/04 06:23:44;;;;;;;6.97;2.80;;;8.90;99.90;;;;;;4997902;28;20405;-89
2022/05/04 06:26:13;;;;;;;4.63;1.83;;;8.90;99.90;;;;;;4999136;28;20199;-90
2022/05/04 06:28:42;;;;;;;5.15;2.05;;;8.90;99.90;;;;;;5003026;28;20726;-89
2022/05/04 06:34:07;;;;;;;3.38;2.00;;;9.00;99.90;;;;;;5008844;28;20683;-86
2022/05/04 06:36:36;;;;;;;3.55;1.60;;;9.00;99.90;;;;;;4996596;28;20219;-88
2022/05/04 06:39:04;;;;;;;3.22;1.80;;;9.00;99.90;;;;;;4996840;28;20207;-87
2022/05/04 06:41:32;;;;;;;9.38;2.00;;;9.10;99.90;;;;;;4996587;28;20203;-85
2022/05/04 06:44:05;;;;;;;4.97;1.55;;;9.10;99.90;;;;;;5002585;28;20206;-85
2022/05/04 06:46:34;;;;;;;6.63;2.30;;;9.20;99.90;;;;;;5017404;28;20290;-86
2022/05/04 06:49:02;;;;;;;3.08;1.60;;;9.30;99.90;;;;;;5017736;28;20187;-87
2022/05/04 06:51:31;;;;;;;6.85;1.80;;;9.40;99.90;;;;;;5018395;28;20286;-86
2022/05/04 06:53:59;;;;;;;4.57;2.63;;;9.50;99.90;;;;;;5004441;28;20261;-86
2022/05/04 06:56:48;;;;;;;7.53;1.98;;;9.60;99.90;;;;;;5000009;28;20214;-87
2022/05/04 06:59:19;;;;;;;7.03;1.98;;;9.60;99.90;;;;;;5030695;28;20368;-87
2022/05/04 07:01:47;;;;;;;4.82;1.55;;;9.70;99.90;;;;;;5020104;28;20217;-87
2022/05/04 07:04:16;;;;;;;5.68;1.80;;;9.80;99.90;;;;;;5012541;28;20624;-86
2022/05/04 07:06:44;;;;;;;5.72;1.83;;;10.00;99.90;;;;;;4995723;28;20207;-87
2022/05/04 07:09:12;;;;;;;4.13;2.85;;;10.00;99.90;;;;;;4996172;28;20203;-90
2022/05/04 07:15:16;;;;;;;8.60;1.58;;;10.10;99.90;;;;;;4996907;28;20207;-88
2022/05/04 07:17:44;;;;;;;5.78;2.53;;;10.10;99.90;;;;;;5013681;28;20199;-89
2022/05/04 07:20:13;;;;;;;4.97;2.08;;;10.20;99.90;;;;;;5010360;28;20224;-92
2022/05/04 07:22:41;;;;;;;3.63;1.60;;;10.20;99.90;;;;;;4993652;28;20208;-89
2022/05/04 07:25:10;;;;;;;4.70;1.60;;;10.30;99.90;;;;;;4993119;28;20219;-91
2022/05/04 07:27:38;;;;;;;4.00;1.88;;;10.40;99.90;;;;;;4998532;28;20270;-89
2022/05/04 07:30:07;;;;;;;6.35;1.80;;;10.40;99.90;;;;;;4996792;28;20845;-90
2022/05/04 07:32:37;;;;;;;4.00;2.13;;;10.60;99.90;;;;;;4999324;28;20222;-89
2022/05/04 07:35:08;;;;;;;5.70;2.25;;;10.80;99.90;;;;;;5000266;28;20184;-88
2022/05/04 07:37:41;;;;;;;4.75;2.00;;;10.90;99.90;;;;;;4996399;28;20287;-87
2022/05/04 07:42:55;;;;;;;6.00;1.75;;;10.90;99.90;;;;;;4997625;28;20195;-88
2022/05/04 07:45:23;;;;;;;6.70;2.38;;;10.90;99.90;;;;;;4994604;28;20200;-86
2022/05/04 07:47:53;;;;;;;4.18;2.05;;;10.70;99.90;;;;;;4994382;28;20286;-85
2022/05/04 07:50:21;;;;;;;6.18;2.55;;;10.70;99.90;;;;;;4992963;28;20220;-86
2022/05/04 07:52:49;;;;;;;2.78;1.80;;;10.70;99.90;;;;;;4993802;28;20203;-86
2022/05/04 07:55:17;;;;;;;3.40;2.00;;;10.80;99.90;;;;;;4994101;28;20370;-88
2022/05/04 07:57:47;;;;;;;5.75;1.92;;;10.80;99.90;;;;;;5005700;28;20306;-87
2022/05/04 08:05:48;;;;;;;3.78;2.10;;;11.00;99.90;;;;;;5016253;28;20201;-87
2022/05/04 08:08:16;;;;;;;5.30;1.42;;;11.20;99.90;;;;;;5014512;28;20384;-87
2022/05/04 08:10:46;;;;;;;3.60;2.03;;;11.30;99.90;;;;;;5014678;28;20301;-87
2022/05/04 08:13:14;;;;;;;4.77;1.90;;;11.50;99.90;;;;;;5014054;28;20526;-86
2022/05/04 08:15:42;;;;;;;5.23;2.20;;;11.70;99.90;;;;;;5016530;28;20431;-86
2022/05/04 08:18:12;;;;;;;5.60;1.70;;;11.80;99.90;;;;;;5017256;28;21092;-89
2022/05/04 08:20:40;;;;;;;1.88;1.70;;;11.80;99.90;;;;;;5018576;28;20568;-88
2022/05/04 08:23:09;;;;;;;3.67;1.83;;;11.90;99.90;;;;;;5022177;28;20234;-89
2022/05/04 08:25:37;;;;;;;4.50;1.80;;;11.90;99.90;;;;;;5023227;28;20465;-85
2022/05/04 08:28:06;;;;;;;3.90;1.80;;;12.00;99.90;;;;;;5023254;28;20525;-86
2022/05/04 08:30:34;;;;;;;5.60;2.07;;;12.00;99.90;;;;;;5025697;28;20561;-86
2022/05/04 08:33:01;;;;;;;6.47;2.33;;;12.00;99.90;;;;;;5027076;28;20457;-87
2022/05/04 08:35:31;;;;;;;5.57;2.20;;;12.00;99.90;;;;;;5030557;28;20442;-87
2022/05/04 08:37:59;;;;;;;7.30;2.73;;;12.10;99.90;;;;;;5032794;28;20508;-88
2022/05/04 08:40:28;;;;;;;5.67;2.30;;;12.20;99.90;;;;;;5032734;28;20523;-87
2022/05/04 08:43:00;;;;;;;5.40;1.67;;;12.20;99.90;;;;;;5020230;28;20980;-87
2022/05/04 08:45:28;;;;;;;5.00;2.27;;;12.10;99.90;;;;;;5020291;28;20450;-86
2022/05/04 08:47:57;;;;;;;7.33;2.57;;;12.20;99.90;;;;;;5020539;28;20528;-89
2022/05/04 08:50:25;;;;;;;2.10;1.50;;;12.40;99.90;;;;;;5022388;28;20477;-88
2022/05/04 08:53:02;;;;;;;4.60;1.73;;;12.60;99.90;;;;;;5021205;28;20529;-86
2022/05/04 08:55:30;;;;;;;2.70;1.70;;;12.80;99.90;;;;;;5024864;28;20451;-91
2022/05/04 08:57:58;;;;;;;5.50;1.70;;;12.90;99.90;;;;;;5025041;28;20464;-91
2022/05/04 09:00:27;;;;;;;7.57;2.30;;;12.90;99.90;;;;;;5025037;28;20564;-87
2022/05/04 09:02:56;;;;;;;2.27;2.07;;;12.90;99.90;;;;;;5024135;28;20511;-89
2022/05/04 09:05:33;;;;;;;3.73;1.90;;;12.80;99.90;;;;;;5027514;28;20434;-86
2022/05/04 09:08:10;;;;;;;2.60;1.77;;;12.70;99.90;;;;;;5036244;28;20472;-88
2022/05/04 09:10:45;;;;;;;5.17;2.10;;;12.60;99.90;;;;;;5027909;28;20457;-88
2022/05/04 09:13:14;;;;;;;5.60;2.50;;;12.60;99.90;;;;;;5021907;28;20481;-86
2022/05/04 09:15:44;;;;;;;6.07;2.33;;;12.50;99.90;;;;;;5020872;28;20517;-87
2022/05/04 09:18:19;;;;;;;8.33;2.40;;;12.40;99.90;;;;;;5022328;28;20524;-89
2022/05/04 09:20:53;;;;;;;5.17;2.70;;;12.40;99.90;;;;;;5021922;28;20485;-88
2022/05/04 09:23:28;;;;;;;5.10;2.07;;;12.60;99.90;;;;;;5022417;28;20465;-89
2022/05/04 09:26:05;;;;;;;4.10;3.00;;;12.70;99.90;;;;;;5023477;28;20515;-92
2022/05/04 09:28:45;;;;;;;5.80;2.13;;;12.90;99.90;;;;;;5022750;28;20445;-90
2022/05/04 09:31:15;;;;;;;5.03;2.47;;;13.00;99.90;;;;;;5019679;28;20522;-88
2022/05/04 09:33:43;;;;;;;9.00;3.60;;;13.00;99.90;;;;;;5017274;28;20477;-88
2022/05/04 09:36:13;;;;;;;4.83;2.63;;;13.00;99.90;;;;;;5016411;28;20493;-86
2022/05/04 09:47:37;;;;;;;6.63;2.20;;;13.50;99.90;;;;;;5020907;28;20504;-91
2022/05/04 09:50:43;;;;;;;8.13;3.10;;;13.40;99.90;;;;;;5020213;28;20469;-89
2022/05/04 09:53:27;;;;;;;4.63;3.37;;;13.20;99.90;;;;;;5018510;28;20553;-90
2022/05/04 09:56:18;;;;;;;2.23;2.00;;;13.00;99.90;;;;;;5017243;28;20444;-90
2022/05/04 09:58:50;;;;;;;3.50;3.07;;;13.00;99.90;;;;;;5010899;28;21126;-90
2022/05/04 10:01:28;;;;;;;5.63;2.33;;;13.10;99.90;;;;;;5020742;28;20474;-89
2022/05/04 10:04:20;;;;;;;4.07;2.33;;;13.10;99.90;;;;;;5021123;28;20445;-90
2022/05/04 10:07:12;;;;;;;3.37;3.13;;;13.30;99.90;;;;;;5018230;28;20458;-88
2022/05/04 10:09:51;;;;;;;4.60;2.27;;;13.30;99.90;;;;;;5032657;28;20532;-90
2022/05/04 10:12:51;;;;;;;5.00;2.47;;;13.60;99.90;;;;;;5026639;28;20511;-90
2022/05/04 10:16:12;;;;;;;;;;;;;;;;;;;;;
2022/05/04 10:19:05;;;;;;;5.23;2.63;;;14.20;99.90;;;;;;4952515;29;20449;-92
2022/05/04 10:21:34;;;;;;;3.77;2.20;;;14.20;99.90;;;;;;5005934;28;20477;-86
2022/05/04 10:24:07;;;;;;;6.60;2.50;;;14.00;99.90;;;;;;5019224;28;20461;-87
2022/05/04 10:26:37;;;;;;;8.53;2.93;;;13.80;99.90;;;;;;5027006;28;20972;-90
2022/05/04 10:37:04;;;;;;;4.63;2.33;;;13.70;99.90;;;;;;4946769;29;20452;-87
2022/05/04 10:39:35;;;;;;;6.50;3.13;;;13.80;99.90;;;;;;4937303;29;20532;-86
2022/05/04 10:42:25;;;;;;;3.60;2.20;;;13.60;99.90;;;;;;4937725;29;21128;-86
2022/05/04 10:45:17;;;;;;;4.10;2.67;;;13.50;99.90;;;;;;4997519;28;20427;-88
2022/05/04 10:51:50;;;;;;;9.97;2.83;;;13.70;99.90;;;;;;4948047;28;20529;-88
2022/05/04 10:54:34;;;;;;;7.93;3.70;;;14.10;99.90;;;;;;5018184;28;20456;-87
2022/05/04 11:01:34;;;;;;;7.00;3.43;;;14.80;99.90;;;;;;4910015;29;20477;-89
2022/05/04 11:04:30;;;;;;;5.47;3.50;;;14.90;99.90;;;;;;4936618;29;20512;-89
2022/05/04 11:15:11;;;;;;;4.70;2.80;;;15.50;99.90;;;;;;4858463;29;20460;-91
2022/05/04 11:18:30;;;;;;;6.50;3.07;;;15.40;99.90;;;;;;4937956;29;20603;-92
2022/05/04 11:21:01;;;;;;;6.97;2.37;;;15.40;99.90;;;;;;4937201;29;20508;-90
2022/05/04 11:23:29;;;;;;;6.23;2.63;;;15.50;99.90;;;;;;4937205;29;20505;-90
2022/05/04 11:26:59;;;;;;;;;;;;;;;;;;;;;
2022/05/04 11:30:37;;;;;;;;;;;;;;;;;;;;;
2022/05/04 11:34:00;;;;;;;;;;;;;;;;;;;;;
2022/05/04 11:37:16;;;;;;;6.00;3.00;;;15.30;99.60;;;;;;4985236;28;20477;-91
2022/05/04 11:39:44;;;;;;;4.47;2.73;;;15.10;99.90;;;;;;5002141;28;20474;-88
2022/05/04 11:42:12;;;;;;;3.70;2.23;;;15.00;99.90;;;;;;5017034;28;20717;-89
2022/05/04 11:44:47;;;;;;;5.23;3.30;;;15.00;99.90;;;;;;5018094;28;20454;-89
2022/05/04 11:47:52;;;;;;;5.30;3.17;;;15.00;99.90;;;;;;5028625;28;20446;-94
2022/05/04 11:50:43;;;;;;;6.33;3.43;;;14.80;99.90;;;;;;5028062;28;20542;-90
2022/05/04 11:53:16;;;;;;;3.93;2.70;;;14.60;99.90;;;;;;5020466;28;20457;-89
2022/05/04 11:55:44;;;;;;;5.30;2.90;;;14.40;99.90;;;;;;5015808;28;20469;-87
2022/05/04 11:58:17;;;;;;;6.60;3.53;;;14.30;99.90;;;;;;5025955;28;20441;-91
2022/05/04 12:04:30;;;;;;;5.10;3.60;;;14.40;99.90;;;;;;5017322;28;20442;-93
2022/05/04 12:07:32;;;;;;;;;;;;;;;;;;;;;
2022/05/04 12:10:45;;;;;;;4.73;2.77;;;14.40;99.90;;;;;;5016519;28;20542;-91
2022/05/04 12:13:26;;;;;;;4.73;2.83;;;14.70;99.90;;;;;;5002390;28;20441;-92
2022/05/04 12:15:56;;;;;;;8.17;3.83;;;14.90;99.90;;;;;;5024223;28;20464;-91
2022/05/04 12:18:37;;;;;;;8.40;4.40;;;15.00;99.90;;;;;;5025233;28;20654;-91
2022/05/04 12:21:24;;;;;;;7.03;3.53;;;15.10;99.90;;;;;;5020421;28;20462;-92
2022/05/04 12:24:01;;;;;;;3.47;2.80;;;15.10;99.90;;;;;;5015783;28;20474;-91
2022/05/04 12:26:33;;;;;;;3.90;3.33;;;15.20;99.90;;;;;;5017139;28;20508;-90
2022/05/04 12:38:49;;;;;;;8.00;3.67;;;15.90;99.60;;;;;;4992627;28;20474;-91
2022/05/04 12:41:33;;;;;;;8.87;3.60;;;16.10;99.20;;;;;;4999873;28;20475;-89
2022/05/04 12:44:06;;;;;;;7.77;4.10;;;16.10;99.70;;;;;;4997452;28;21219;-91
2022/05/04 12:46:34;;;;;;;12.07;3.93;;;16.00;99.30;;;;;;4998773;28;20861;-93
2022/05/04 12:49:03;;;;;;;3.60;2.60;;;16.00;99.00;;;;;;5002589;28;20451;-92
2022/05/04 12:51:32;;;;;;;4.13;3.00;;;15.90;99.30;;;;;;5004073;28;20539;-93
2022/05/04 12:54:02;;;;;;;7.87;3.30;;;15.80;99.10;;;;;;5007605;28;20439;-93
2022/05/04 12:56:47;;;;;;;4.07;2.50;;;15.70;99.60;;;;;;5007273;28;20435;-94
2022/05/04 12:59:16;;;;;;;5.17;2.80;;;15.70;99.90;;;;;;5011246;28;20434;-95
2022/05/04 13:01:45;;;;;;;2.73;2.50;;;15.70;99.90;;;;;;4999973;28;20451;-88
2022/05/04 13:04:15;;;;;;;5.03;3.00;;;15.70;99.90;;;;;;4998362;28;20476;-88
2022/05/04 13:06:44;;;;;;;6.43;3.40;;;15.70;99.90;;;;;;5001002;28;20423;-89
2022/05/04 13:09:13;;;;;;;4.73;3.43;;;15.70;99.90;;;;;;5006917;28;20821;-89
2022/05/04 13:11:42;;;;;;;4.20;3.20;;;15.70;99.60;;;;;;5006821;28;20435;-88
2022/05/04 13:14:10;;;;;;;6.50;3.60;;;15.80;99.90;;;;;;5004675;28;20467;-88
2022/05/04 13:16:38;;;;;;;12.50;3.40;;;15.90;99.90;;;;;;5001306;28;20463;-86
2022/05/04 13:19:06;;;;;;;8.50;3.40;;;16.10;99.80;;;;;;5004709;28;20451;-89
2022/05/04 13:21:35;;;;;;;4.50;4.10;;;16.20;99.10;;;;;;5017837;28;20438;-93
2022/05/04 13:24:06;;;;;;;6.70;3.37;;;16.30;99.00;;;;;;5008397;28;20493;-91
2022/05/04 13:26:34;;;;;;;6.60;4.27;;;16.30;99.40;;;;;;5003061;28;20466;-89
2022/05/04 13:29:03;;;;;;;6.63;3.63;;;16.40;98.90;;;;;;4998232;28;20535;-90
2022/05/04 13:31:31;;;;;;;5.37;3.63;;;16.30;98.80;;;;;;5001080;28;20501;-91
2022/05/04 13:33:59;;;;;;;6.23;4.00;;;16.40;98.60;;;;;;5000997;28;20550;-91
2022/05/04 13:36:27;;;;;;;4.53;3.00;;;16.30;98.60;;;;;;4999605;28;20451;-91
2022/05/04 13:38:56;;;;;;;5.77;3.40;;;16.10;98.70;;;;;;5003113;28;20473;-90
2022/05/04 13:41:25;;;;;;;7.77;3.13;;;16.00;99.00;;;;;;5000336;28;20466;-91
2022/05/04 13:43:55;;;;;;;7.50;3.93;;;15.90;98.60;;;;;;4999846;28;20508;-91
2022/05/04 13:46:24;;;;;;;3.40;3.10;;;15.90;98.70;;;;;;5001828;28;21026;-91
2022/05/04 13:48:56;;;;;;;5.10;3.73;;;15.90;98.80;;;;;;5001353;28;20529;-91
2022/05/04 13:54:11;;;;;;;7.60;3.13;;;16.00;98.80;;;;;;5010094;28;20435;-92
2022/05/04 13:56:39;;;;;;;6.70;3.63;;;16.00;98.80;;;;;;5000630;28;20518;-92
2022/05/04 13:59:07;;;;;;;8.80;4.43;;;16.00;99.20;;;;;;5001138;28;20530;-90
2022/05/04 14:01:39;;;;;;;5.80;4.00;;;15.80;98.70;;;;;;4998711;28;20618;-92
2022/05/04 14:04:07;;;;;;;4.87;3.30;;;15.80;98.80;;;;;;4999645;28;20475;-91
2022/05/04 14:06:35;;;;;;;3.63;3.20;;;15.70;98.70;;;;;;4997786;28;20947;-91
2022/05/04 14:09:04;;;;;;;3.93;3.50;;;15.80;98.60;;;;;;5003656;28;20513;-91
2022/05/04 14:11:32;;;;;;;7.67;4.00;;;15.80;98.70;;;;;;4999660;28;20583;-91
2022/05/04 14:16:53;;;;;;;4.60;3.50;;;15.70;98.70;;;;;;5001811;28;20459;-90
2022/05/04 14:19:22;;;;;;;5.27;3.77;;;15.80;99.30;;;;;;5001553;28;20458;-89
2022/05/04 14:21:52;;;;;;;4.63;3.10;;;15.80;98.60;;;;;;5015454;28;20453;-89
2022/05/04 14:24:21;;;;;;;4.07;3.07;;;15.90;98.80;;;;;;5035267;28;20482;-91
2022/05/04 14:26:51;;;;;;;3.33;2.30;;;15.90;98.60;;;;;;5022943;28;20470;-92
2022/05/04 14:29:20;;;;;;;7.00;3.40;;;15.90;98.80;;;;;;5018722;28;20450;-87
2022/05/04 14:31:49;;;;;;;4.43;3.13;;;15.90;99.00;;;;;;5017931;28;20458;-89
2022/05/04 14:34:22;;;;;;;7.90;4.33;;;15.90;99.10;;;;;;5020733;28;20398;-92